createdAt,value
2023-02-17T00:02:39.682Z,100041.72
2023-02-17T00:05:40.272Z,100039.23
2023-02-17T00:08:46.216Z,100035.02
2023-02-17T00:11:47.480Z,100034.80
2023-02-17T00:14:54.341Z,100031.61
2023-02-17T00:17:55.288Z,100033.19
2023-02-17T00:21:00.232Z,100031.06
2023-02-17T00:24:03.854Z,100030.48
2023-02-17T00:27:06.398Z,100024.77
2023-02-17T00:30:09.540Z,100020.78
2023-02-17T00:33:10.347Z,100015.63
2023-02-17T00:36:11.302Z,100012.95
2023-02-17T00:39:11.460Z,100011.17
2023-02-17T00:42:11.272Z,100012.18
2023-02-17T00:45:14.855Z,100010.89
2023-02-17T00:48:16.320Z,100011.11
2023-02-17T00:51:16.344Z,100012.08
2023-02-17T00:54:18.339Z,100006.30
2023-02-17T00:57:21.416Z,99998.73
2023-02-17T01:00:23.324Z,100000.89
2023-02-17T01:03:24.368Z,100001.61
2023-02-17T01:06:34.354Z,99998.02
2023-02-17T01:09:34.369Z,99993.80
2023-02-17T01:12:36.393Z,99994.14
2023-02-17T01:15:37.353Z,99986.59
2023-02-17T01:18:41.374Z,99986.38
2023-02-17T01:21:44.592Z,99983.93
2023-02-17T01:24:44.493Z,99984.77
2023-02-17T01:27:44.376Z,99981.23
2023-02-17T01:30:45.483Z,99978.96
2023-02-17T01:33:47.418Z,99974.77
2023-02-17T01:36:48.562Z,99970.34
2023-02-17T01:39:49.412Z,99970.50
2023-02-17T01:42:50.428Z,99970.61
2023-02-17T01:46:04.740Z,99973.00
2023-02-17T01:49:05.469Z,99976.56
2023-02-17T01:52:14.479Z,99975.16
2023-02-17T01:55:21.457Z,99972.83
2023-02-17T01:58:21.430Z,99971.51
2023-02-17T02:01:21.952Z,99967.42
2023-02-17T02:04:23.459Z,99963.83
2023-02-17T02:07:30.486Z,99966.45
2023-02-17T02:10:33.675Z,99969.83
2023-02-17T02:13:35.468Z,99971.89
2023-02-17T02:17:00.482Z,99977.45
2023-02-17T02:20:11.065Z,99976.30
2023-02-17T02:23:47.613Z,99972.88
2023-02-17T02:27:02.487Z,99965.14
2023-02-17T02:30:29.573Z,99962.70
2023-02-17T02:33:41.695Z,99963.71
2023-02-17T02:36:51.627Z,99958.40
2023-02-17T02:39:53.760Z,99957.95
2023-02-17T02:42:55.500Z,99955.66
2023-02-17T02:45:57.668Z,99959.52
2023-02-17T02:48:57.493Z,99953.89
2023-02-17T02:52:02.542Z,99956.52
2023-02-17T02:55:27.515Z,99959.60
2023-02-17T02:58:42.546Z,99959.75
2023-02-17T03:02:29.575Z,99960.78
2023-02-17T03:05:47.783Z,99965.75
2023-02-17T03:08:50.581Z,99972.77
2023-02-17T03:11:52.542Z,99972.17
2023-02-17T03:14:58.818Z,99977.30
2023-02-17T03:17:58.609Z,99974.59
2023-02-17T03:21:05.260Z,99983.21
2023-02-17T03:24:08.692Z,99984.10
2023-02-17T03:27:11.574Z,99980.48
2023-02-17T03:30:12.578Z,99986.10
2023-02-17T03:33:12.566Z,99983.80
2023-02-17T03:36:12.569Z,99983.84
2023-02-17T03:39:16.608Z,99980.57
2023-02-17T03:42:16.695Z,99981.41
2023-02-17T03:45:17.609Z,99977.98
2023-02-17T03:48:24.898Z,99982.22
2023-02-17T03:51:27.675Z,99979.08
2023-02-17T03:54:29.651Z,99982.92
2023-02-17T03:57:29.692Z,99987.59
2023-02-17T04:00:29.712Z,99984.64
2023-02-17T04:03:32.738Z,99985.16
2023-02-17T04:06:33.711Z,99989.14
2023-02-17T04:09:37.858Z,99990.67
2023-02-17T04:12:39.078Z,99984.38
2023-02-17T04:15:41.728Z,99988.06
2023-02-17T04:18:42.776Z,99990.89
2023-02-17T04:21:43.717Z,99990.99
2023-02-17T04:24:44.720Z,99987.75
2023-02-17T04:27:44.690Z,99985.07
2023-02-17T04:30:45.771Z,99986.94
2023-02-17T04:33:53.202Z,99993.02
2023-02-17T04:36:53.780Z,99994.49
2023-02-17T04:39:54.913Z,99990.95
2023-02-17T04:42:55.798Z,99993.59
2023-02-17T04:45:58.760Z,99990.60
2023-02-17T04:49:01.673Z,99990.33
2023-02-17T04:52:01.760Z,99994.23
2023-02-17T04:55:02.716Z,99999.03
2023-02-17T04:58:02.756Z,100000.05
2023-02-17T05:01:04.779Z,100003.61
2023-02-17T05:04:04.726Z,100003.13
2023-02-17T05:07:06.799Z,100005.86
2023-02-17T05:10:13.758Z,100009.10
2023-02-17T05:13:17.820Z,100012.58
2023-02-17T05:16:24.787Z,100015.98
2023-02-17T05:19:24.770Z,100019.00
2023-02-17T05:22:25.777Z,100019.77
2023-02-17T05:25:26.789Z,100018.15
2023-02-17T05:28:29.297Z,100023.35
2023-02-17T05:31:31.895Z,100023.97
2023-02-17T05:34:33.319Z,100025.45
2023-02-17T05:37:35.789Z,100022.83
2023-02-17T05:40:39.270Z,100030.50
2023-02-17T05:43:41.846Z,100035.23
2023-02-17T05:46:45.120Z,100041.60
2023-02-17T05:49:44.999Z,100044.89
2023-02-17T05:52:51.767Z,100051.34
2023-02-17T05:55:53.866Z,100055.54
2023-02-17T05:58:53.817Z,100054.48
2023-02-17T06:01:57.912Z,100054.76
2023-02-17T06:05:00.993Z,100055.79
2023-02-17T06:08:04.822Z,100058.20
2023-02-17T06:11:08.204Z,100065.13
2023-02-17T06:14:07.848Z,100066.02
2023-02-17T06:17:12.180Z,100074.67
2023-02-17T06:20:17.904Z,100079.48
2023-02-17T06:23:17.910Z,100080.16
2023-02-17T06:26:21.942Z,100080.61
2023-02-17T06:29:24.914Z,100083.55
2023-02-17T06:32:26.111Z,100082.96
2023-02-17T06:35:28.366Z,100086.33
2023-02-17T06:38:30.269Z,100087.31
2023-02-17T06:41:31.387Z,100091.54
2023-02-17T06:44:37.092Z,100095.22
2023-02-17T06:47:38.917Z,100101.55
2023-02-17T06:50:39.953Z,100102.90
2023-02-17T06:53:41.979Z,100106.22
2023-02-17T06:56:45.768Z,100104.36
2023-02-17T06:59:49.362Z,100103.86
2023-02-17T07:02:52.190Z,100101.06
2023-02-17T07:05:54.150Z,100101.67
2023-02-17T07:08:55.077Z,100106.45
2023-02-17T07:11:56.940Z,100112.27
2023-02-17T07:14:59.317Z,100114.41
2023-02-17T07:18:01.217Z,100116.70
2023-02-17T07:21:03.024Z,100121.59
2023-02-17T07:24:02.993Z,100120.34
2023-02-17T07:27:04.003Z,100124.56
2023-02-17T07:30:03.998Z,100121.48
2023-02-17T07:33:06.892Z,100120.60
2023-02-17T07:36:09.038Z,100124.16
2023-02-17T07:39:09.024Z,100124.55
2023-02-17T07:42:11.015Z,100125.13
2023-02-17T07:45:15.034Z,100124.39
2023-02-17T07:48:16.089Z,100125.61
2023-02-17T07:51:20.016Z,100127.55
2023-02-17T07:54:22.098Z,100132.27
2023-02-17T07:57:26.242Z,100137.05
2023-02-17T08:00:30.444Z,100137.56
2023-02-17T08:03:31.049Z,100137.17
2023-02-17T08:06:36.229Z,100134.99
2023-02-17T08:09:56.066Z,100137.52
2023-02-17T08:13:15.095Z,100136.71
2023-02-17T08:19:47.544Z,100144.47
2023-02-17T08:22:51.088Z,100149.04
2023-02-17T08:26:12.252Z,100154.33
2023-02-17T08:29:25.809Z,100157.61
2023-02-17T08:32:28.157Z,100156.83
2023-02-17T08:35:36.631Z,100160.88
2023-02-17T08:38:46.308Z,100166.40
2023-02-17T08:41:52.193Z,100167.77
2023-02-17T08:45:01.462Z,100167.91
2023-02-17T08:48:10.346Z,100174.02
2023-02-17T08:51:13.320Z,100173.61
2023-02-17T08:54:16.288Z,100173.95
2023-02-17T08:57:21.448Z,100177.20
2023-02-17T09:00:27.735Z,100183.37
2023-02-17T09:03:33.202Z,100182.39
2023-02-17T09:06:34.157Z,100180.80
2023-02-17T09:09:37.292Z,100176.83
2023-02-17T09:12:42.776Z,100174.67
2023-02-17T09:15:44.257Z,100183.27
2023-02-17T09:18:47.167Z,100190.86
2023-02-17T09:21:48.744Z,100193.86
2023-02-17T09:24:52.251Z,100192.41
2023-02-17T09:27:55.767Z,100191.85
2023-02-17T09:31:05.406Z,100191.98
2023-02-17T09:34:12.874Z,100184.49
2023-02-17T09:37:14.209Z,100185.60
2023-02-17T09:40:18.189Z,100185.83
2023-02-17T09:43:31.767Z,100185.59
2023-02-17T09:46:37.295Z,100185.59
2023-02-17T09:49:41.305Z,100182.79
2023-02-17T09:53:11.336Z,100185.13
2023-02-17T09:56:12.269Z,100181.89
2023-02-17T09:59:50.273Z,100183.15
2023-02-17T10:03:04.324Z,100182.73
2023-02-17T10:06:22.278Z,100181.62
2023-02-17T10:09:56.327Z,100181.40
2023-02-17T10:13:04.453Z,100185.60
2023-02-17T10:16:09.474Z,100181.73
2023-02-17T10:19:13.272Z,100180.38
2023-02-17T10:22:32.284Z,100180.92
2023-02-17T10:25:52.414Z,100178.80
2023-02-17T10:29:10.420Z,100180.23
2023-02-17T10:32:34.813Z,100178.17
2023-02-17T10:35:56.425Z,100176.20
2023-02-17T10:39:05.292Z,100179.98
2023-02-17T10:42:05.290Z,100178.51
2023-02-17T10:45:13.360Z,100175.52
2023-02-17T10:48:20.301Z,100180.44
2023-02-17T10:51:26.311Z,100178.63
2023-02-17T10:54:35.339Z,100178.40
2023-02-17T10:57:38.593Z,100179.25
2023-02-17T11:00:40.365Z,100180.65
2023-02-17T11:03:44.377Z,100180.21
2023-02-17T11:06:44.320Z,100177.46
2023-02-17T11:09:47.395Z,100173.08
2023-02-17T11:12:52.605Z,100170.86
2023-02-17T11:15:59.835Z,100174.06
2023-02-17T11:19:02.381Z,100178.71
2023-02-17T11:22:05.568Z,100182.86
2023-02-17T11:25:15.634Z,100180.38
2023-02-17T11:28:23.838Z,100182.42
2023-02-17T11:31:42.712Z,100184.42
2023-02-17T11:34:43.440Z,100182.25
2023-02-17T11:37:43.486Z,100185.69
2023-02-17T11:40:47.394Z,100183.41
2023-02-17T11:44:11.448Z,100180.67
2023-02-17T11:47:16.828Z,100179.03
2023-02-17T11:50:50.467Z,100176.91
2023-02-17T11:54:00.437Z,100174.16
2023-02-17T11:57:44.381Z,100166.67
2023-02-17T12:01:23.529Z,100168.23
2023-02-17T12:04:39.525Z,100174.06
2023-02-17T12:08:18.462Z,100174.25
2023-02-17T12:11:32.412Z,100172.34
2023-02-17T12:15:01.546Z,100176.52
2023-02-17T12:18:46.237Z,100173.02
2023-02-17T12:22:07.516Z,100172.59
2023-02-17T12:25:24.480Z,100170.18
2023-02-17T12:28:39.593Z,100167.36
2023-02-17T12:32:02.668Z,100166.98
2023-02-17T12:35:10.639Z,100173.27
2023-02-17T12:38:16.702Z,100176.43
2023-02-17T12:41:19.527Z,100173.46
2023-02-17T12:44:25.702Z,100173.77
2023-02-17T12:47:35.733Z,100175.37
2023-02-17T12:50:55.499Z,100180.55
2023-02-17T12:54:13.057Z,100177.63
2023-02-17T12:57:26.585Z,100173.73
2023-02-17T13:00:39.771Z,100171.84
2023-02-17T13:03:47.887Z,100173.25
2023-02-17T13:06:51.557Z,100172.68
2023-02-17T13:09:59.601Z,100167.75
2023-02-17T13:13:09.758Z,100166.41
2023-02-17T13:16:25.564Z,100163.86
2023-02-17T13:19:28.019Z,100162.73
2023-02-17T13:22:35.675Z,100172.48
2023-02-17T13:25:45.564Z,100172.52
2023-02-17T13:28:53.131Z,100166.64
2023-02-17T13:32:02.719Z,100169.58
2023-02-17T13:35:13.759Z,100166.86
2023-02-17T13:38:15.683Z,100169.14
2023-02-17T13:41:18.577Z,100165.77
2023-02-17T13:44:39.724Z,100162.55
2023-02-17T13:47:49.700Z,100162.41
2023-02-17T13:50:57.708Z,100157.34
2023-02-17T13:54:02.689Z,100161.86
2023-02-17T13:57:08.147Z,100163.12
2023-02-17T14:00:41.671Z,100169.77
2023-02-17T14:03:56.654Z,100163.33
2023-02-17T14:06:56.875Z,100166.02
2023-02-17T14:10:06.399Z,100165.58
2023-02-17T14:13:07.732Z,100170.77
2023-02-17T14:16:10.965Z,100164.92
2023-02-17T14:19:19.510Z,100170.23
2023-02-17T14:22:21.756Z,100168.61
2023-02-17T14:25:26.257Z,100168.11
2023-02-17T14:28:36.907Z,100171.73
2023-02-17T14:31:41.148Z,100174.33
2023-02-17T14:34:44.917Z,100175.39
2023-02-17T14:37:45.914Z,100176.77
2023-02-17T14:40:46.672Z,100173.04
2023-02-17T14:43:48.691Z,100176.63
2023-02-17T14:46:48.799Z,100175.34
2023-02-17T14:49:49.755Z,100178.84
2023-02-17T14:52:59.741Z,100179.14
2023-02-17T14:56:25.714Z,100178.27
2023-02-17T14:59:25.724Z,100183.02
2023-02-17T15:02:32.142Z,100190.48
2023-02-17T15:05:37.795Z,100187.59
2023-02-17T15:08:46.411Z,100190.11
2023-02-17T15:11:51.884Z,100181.88
2023-02-17T15:14:56.835Z,100177.55
2023-02-17T15:18:10.279Z,100182.21
2023-02-17T15:21:14.006Z,100184.34
2023-02-17T15:24:38.829Z,100184.38
2023-02-17T15:27:43.101Z,100185.98
2023-02-17T15:30:47.245Z,100184.91
2023-02-17T15:33:48.823Z,100185.70
2023-02-17T15:36:52.417Z,100188.89
2023-02-17T15:39:59.397Z,100188.05
2023-02-17T15:43:15.819Z,100193.66
2023-02-17T15:46:30.081Z,100191.60
2023-02-17T15:49:33.851Z,100187.13
2023-02-17T15:52:37.873Z,100182.90
2023-02-17T15:55:43.827Z,100184.48
2023-02-17T15:58:47.379Z,100181.15
2023-02-17T16:01:52.193Z,100188.34
2023-02-17T16:04:54.999Z,100186.77
2023-02-17T16:07:59.806Z,100182.50
2023-02-17T16:11:05.410Z,100179.98
2023-02-17T16:14:11.009Z,100180.59
2023-02-17T16:17:14.422Z,100172.93
2023-02-17T16:20:26.285Z,100173.96
2023-02-17T16:23:33.104Z,100173.17
2023-02-17T16:26:47.029Z,100168.69
2023-02-17T16:29:48.074Z,100167.53
2023-02-17T16:32:56.917Z,100170.16
2023-02-17T16:36:14.121Z,100174.44
2023-02-17T16:39:29.941Z,100166.25
2023-02-17T16:42:36.505Z,100173.73
2023-02-17T16:45:44.223Z,100170.89
2023-02-17T16:48:48.972Z,100176.84
2023-02-17T16:51:52.486Z,100180.63
2023-02-17T16:55:01.927Z,100177.59
2023-02-17T16:58:07.016Z,100177.13
2023-02-17T17:01:12.523Z,100180.33
2023-02-17T17:04:17.109Z,100175.26
2023-02-17T17:07:20.279Z,100170.48
2023-02-17T17:10:24.978Z,100163.38
2023-02-17T17:13:29.575Z,100165.02
2023-02-17T17:16:39.325Z,100160.20
2023-02-17T17:19:43.032Z,100164.08
2023-02-17T17:22:45.224Z,100164.22
2023-02-17T17:25:57.216Z,100155.64
2023-02-17T17:29:00.042Z,100150.30
2023-02-17T17:32:02.270Z,100146.30
2023-02-17T17:35:07.502Z,100141.25
2023-02-17T17:38:08.455Z,100134.18
2023-02-17T17:41:17.227Z,100129.06
2023-02-17T17:44:17.985Z,100130.30
2023-02-17T17:47:29.432Z,100126.65
2023-02-17T17:50:37.086Z,100121.64
2023-02-17T17:53:41.849Z,100117.79
2023-02-17T17:56:52.980Z,100109.57
2023-02-17T17:59:55.269Z,100109.14
2023-02-17T18:02:58.225Z,100110.91
2023-02-17T18:06:10.755Z,100107.85
2023-02-17T18:09:31.778Z,100101.45
2023-02-17T18:12:33.175Z,100099.09
2023-02-17T18:15:38.122Z,100096.98
2023-02-17T18:18:39.164Z,100091.67
2023-02-17T18:21:41.912Z,100087.73
2023-02-17T18:24:43.180Z,100085.50
2023-02-17T18:28:03.622Z,100082.73
2023-02-17T18:31:14.211Z,100074.86
2023-02-17T18:34:15.311Z,100066.17
2023-02-17T18:37:17.084Z,100061.98
2023-02-17T18:40:21.159Z,100052.55
2023-02-17T18:43:23.281Z,100046.00
2023-02-17T18:46:26.756Z,100044.13
2023-02-17T18:49:25.127Z,100036.71
2023-02-17T18:52:28.544Z,100036.34
2023-02-17T18:55:43.393Z,100035.11
2023-02-17T18:58:45.156Z,100038.48
2023-02-17T19:01:59.268Z,100027.10
2023-02-17T19:05:14.287Z,100021.54
2023-02-17T19:08:34.733Z,100016.33
2023-02-17T19:11:42.223Z,100010.54
2023-02-17T19:15:04.172Z,100018.05
2023-02-17T19:18:36.857Z,100016.90
2023-02-17T19:25:52.357Z,100008.14
2023-02-17T19:29:21.001Z,100004.19
2023-02-17T19:32:53.816Z,99987.10
2023-02-17T19:39:40.979Z,99983.08
2023-02-17T19:54:19.481Z,99994.11
2023-02-17T19:57:49.497Z,99979.42
2023-02-17T20:01:58.924Z,99977.33
2023-02-17T20:06:01.606Z,99962.58
2023-02-17T20:09:47.950Z,99954.73
2023-02-17T20:13:08.715Z,99941.92
2023-02-17T20:24:02.461Z,99934.21
2023-02-17T20:31:24.660Z,99910.41
2023-02-17T20:35:00.741Z,99892.80
2023-02-17T20:38:18.978Z,99886.76
2023-02-17T20:41:52.297Z,99894.73
2023-02-17T20:44:59.442Z,99900.70
2023-02-17T20:48:21.369Z,99882.92
2023-02-17T20:51:34.133Z,99869.92
2023-02-17T20:54:52.206Z,99863.66
2023-02-17T20:58:06.692Z,99855.96
2023-02-17T21:01:32.933Z,99838.16
2023-02-17T21:08:05.227Z,99831.77
2023-02-17T21:11:15.536Z,99825.17
2023-02-17T21:14:22.827Z,99819.59
2023-02-17T21:17:40.465Z,99819.55
2023-02-17T21:20:46.576Z,99808.57
2023-02-17T21:24:05.783Z,99799.84
2023-02-17T21:27:14.788Z,99792.67
2023-02-17T21:30:37.601Z,99787.03
2023-02-17T21:33:41.680Z,99776.84
2023-02-17T21:36:57.840Z,99757.90
2023-02-17T21:40:26.355Z,99751.00
2023-02-17T21:43:52.646Z,99743.83
2023-02-17T21:46:57.471Z,99741.36
2023-02-17T21:50:05.729Z,99726.23
2023-02-17T21:56:46.200Z,99723.98
2023-02-17T21:59:50.404Z,99718.11
2023-02-17T22:03:13.392Z,99707.83
2023-02-17T22:09:57.792Z,99700.08
2023-02-17T22:13:10.177Z,99688.53
2023-02-17T22:16:19.593Z,99683.33
2023-02-17T22:19:33.463Z,99676.09
2023-02-17T22:26:56.802Z,99665.48
2023-02-17T22:30:27.894Z,99659.35
2023-02-17T22:33:32.470Z,99655.13
2023-02-17T22:36:36.533Z,99654.58
2023-02-17T22:39:39.748Z,99641.26
2023-02-17T22:42:52.575Z,99631.04
2023-02-17T22:47:05.088Z,99631.41
2023-02-17T22:50:09.096Z,99621.25
2023-02-17T22:53:15.853Z,99614.35
2023-02-17T22:56:21.341Z,99608.17
2023-02-17T22:59:25.125Z,99597.88
2023-02-17T23:02:32.313Z,99595.02
2023-02-17T23:05:43.106Z,99596.77
2023-02-17T23:08:50.597Z,99592.20
2023-02-17T23:12:00.655Z,99589.58
2023-02-17T23:15:12.935Z,99588.42
2023-02-17T23:18:15.220Z,99587.67
2023-02-17T23:21:24.342Z,99582.02
2023-02-17T23:24:29.404Z,99572.00
2023-02-17T23:27:36.411Z,99553.45
2023-02-17T23:30:39.851Z,99548.17
2023-02-17T23:33:43.249Z,99561.39
2023-02-17T23:36:51.891Z,99575.95
2023-02-17T23:40:00.196Z,99574.41
2023-02-17T23:43:12.407Z,99568.93
2023-02-17T23:46:13.499Z,99559.27
2023-02-17T23:49:16.411Z,99564.87
2023-02-17T23:52:21.990Z,99550.48
2023-02-17T23:55:28.429Z,99556.70
2023-02-17T23:58:34.763Z,99538.77
